Alderpoint, California
Current Conditions -  °F | °C
As of 4:10 PM on Saturday 25 Oct 2014 (Local Time) from KFOT Reporting Station
Overcast Overcast  
Wind Chill: 59°   Ceiling: 6000
Heat Index: 59°   Visibility: 9mi
Dew Point: 54°   Wind: 8mph
Humidity: 82%   Direction: 300°WNW
Pressure: 30.01"   Gusts: NA
Location:  40.18°N, 123.61°W
Report Text: KFOT 252310Z AUTO 30007KT 9SM OVC060 15/12 A3001 RMK AO1
Loading
Personal Weather Stations






























Interactive Weather Map New forecast layout! Learn more

10-Day Weather Forecast

Advertisements
Track Severe Weather on mobile